Terminal Aerodrome Forecast
Issued by NWS Shreveport, LA

Home | Current Version | Previous Version | Text Only | Print | Product List | Glossary On
Versions: 1 2 3 4 5 6 7 8 9 10 11 12 13 14 15 16 17 18 19 20 21 22 23 24
000
FTUS44 KSHV 170617 RRB
TAFTXK
TAF
KTXK 170617Z 1706/1806 26008KT P6SM -RA OVC060
      TEMPO 1706/1709 31008KT 5SM -SHRA BKN045 OVC060
     FM170900 31006KT P6SM -SHRA BKN045 OVC070
      TEMPO 1712/1714 6SM -TSRA BR BKN045CB OVC090
     FM171900 31003KT P6SM OVC050=

USA.gov is the U.S. government's official web portal to all federal, state and local government web resources and services.